createdAt,value
2022-08-23T00:02:29.892Z,58.92
2022-08-23T00:05:08.033Z,59.31
2022-08-23T00:07:39.763Z,59.05
2022-08-23T00:10:12.635Z,58.62
2022-08-23T00:12:43.809Z,59.06
2022-08-23T00:15:17.679Z,59.40
2022-08-23T00:17:46.873Z,59.29
2022-08-23T00:20:19.917Z,59.50
2022-08-23T00:22:49.202Z,59.33
2022-08-23T00:25:20.430Z,58.94
2022-08-23T00:27:51.118Z,58.84
2022-08-23T00:30:20.678Z,58.82
2022-08-23T00:32:51.728Z,59.03
2022-08-23T00:35:27.505Z,58.90
2022-08-23T00:38:32.903Z,59.33
2022-08-23T00:40:52.843Z,59.03
2022-08-23T00:43:47.921Z,58.87
2022-08-23T00:46:49.544Z,58.92
2022-08-23T00:49:19.742Z,58.96
2022-08-23T00:51:57.696Z,59.87
2022-08-23T00:54:29.989Z,60.07
2022-08-23T00:57:04.940Z,59.96
2022-08-23T00:59:35.895Z,60.44
2022-08-23T01:02:08.834Z,59.94
2022-08-23T01:04:44.574Z,59.92
2022-08-23T01:07:21.262Z,60.44
2022-08-23T01:09:54.150Z,60.15
2022-08-23T01:12:33.108Z,60.43
2022-08-23T01:15:12.742Z,60.14
2022-08-23T01:17:47.901Z,61.18
2022-08-23T01:20:21.504Z,60.51
2022-08-23T01:23:01.214Z,60.74
2022-08-23T01:25:35.106Z,61.71
2022-08-23T01:28:04.904Z,61.70
2022-08-23T01:30:36.565Z,61.47
2022-08-23T01:33:08.493Z,61.36
2022-08-23T01:35:44.434Z,61.53
2022-08-23T01:38:15.445Z,61.89
2022-08-23T01:40:47.436Z,61.30
2022-08-23T01:43:19.867Z,61.47
2022-08-23T01:45:52.684Z,61.85
2022-08-23T01:48:25.670Z,61.99
2022-08-23T01:50:55.089Z,62.37
2022-08-23T01:53:25.359Z,62.65
2022-08-23T01:55:56.130Z,62.21
2022-08-23T01:58:26.901Z,63.14
2022-08-23T02:00:56.469Z,64.15
2022-08-23T02:03:26.235Z,64.33
2022-08-23T02:05:55.565Z,65.67
2022-08-23T02:08:42.441Z,64.75
2022-08-23T02:11:16.290Z,65.72
2022-08-23T02:13:49.377Z,65.76
2022-08-23T02:16:25.591Z,66.60
2022-08-23T02:18:59.175Z,66.78
2022-08-23T02:21:31.544Z,67.45
2022-08-23T02:24:04.333Z,68.37
2022-08-23T02:26:37.014Z,69.37
2022-08-23T02:29:08.052Z,69.55
2022-08-23T02:31:37.916Z,70.10
2022-08-23T02:34:07.796Z,70.07
2022-08-23T02:36:38.848Z,70.03
2022-08-23T02:39:09.610Z,71.29
2022-08-23T02:41:41.294Z,71.56
2022-08-23T02:44:13.522Z,71.87
2022-08-23T02:46:44.113Z,71.25
2022-08-23T02:49:14.161Z,71.67
2022-08-23T02:51:44.088Z,71.58
2022-08-23T02:54:13.729Z,71.45
2022-08-23T02:56:44.280Z,71.84
2022-08-23T02:59:13.580Z,72.40
2022-08-23T03:01:42.902Z,72.22
2022-08-23T03:04:22.606Z,72.25
2022-08-23T03:06:51.891Z,72.48
2022-08-23T03:09:22.790Z,72.43
2022-08-23T03:11:53.474Z,72.92
2022-08-23T03:14:24.778Z,72.99
2022-08-23T03:16:54.465Z,72.99
2022-08-23T03:19:27.816Z,73.45
2022-08-23T03:21:57.284Z,73.94
2022-08-23T03:24:27.283Z,73.56
2022-08-23T03:26:57.990Z,74.18
2022-08-23T03:29:27.163Z,74.57
2022-08-23T03:32:05.303Z,74.79
2022-08-23T03:34:38.550Z,74.75
2022-08-23T03:37:10.520Z,74.85
2022-08-23T03:39:40.332Z,74.99
2022-08-23T03:42:12.145Z,75.35
2022-08-23T03:44:41.407Z,75.51
2022-08-23T03:47:10.760Z,75.54
2022-08-23T03:49:44.135Z,75.42
2022-08-23T03:52:13.466Z,75.47
2022-08-23T03:54:42.660Z,75.35
2022-08-23T03:57:15.832Z,75.92
2022-08-23T03:59:45.460Z,75.57
2022-08-23T04:02:14.798Z,75.57
2022-08-23T04:04:44.110Z,75.48
2022-08-23T04:07:32.026Z,75.49
2022-08-23T04:10:01.447Z,75.38
2022-08-23T04:12:38.374Z,75.73
2022-08-23T04:15:14.866Z,75.26
2022-08-23T04:17:44.539Z,75.19
2022-08-23T04:20:14.120Z,75.39
2022-08-23T04:22:54.712Z,75.64
2022-08-23T04:25:33.809Z,75.75
2022-08-23T04:28:06.877Z,75.76
2022-08-23T04:30:36.826Z,75.51
2022-08-23T04:33:11.283Z,75.49
2022-08-23T04:35:42.919Z,75.63
2022-08-23T04:38:24.518Z,76.04
2022-08-23T04:41:15.558Z,75.27
2022-08-23T04:43:49.008Z,75.24
2022-08-23T04:46:18.508Z,75.31
2022-08-23T04:48:50.098Z,74.88
2022-08-23T04:51:22.331Z,74.89
2022-08-23T04:53:52.310Z,74.85
2022-08-23T04:56:43.033Z,74.71
2022-08-23T04:59:15.591Z,75.08
2022-08-23T05:01:47.176Z,75.09
2022-08-23T05:04:16.821Z,74.74
2022-08-23T05:06:46.701Z,74.71
2022-08-23T05:09:20.338Z,74.30
2022-08-23T05:11:51.270Z,74.72
2022-08-23T05:14:22.538Z,74.68
2022-08-23T05:16:51.926Z,74.67
2022-08-23T05:19:21.094Z,74.68
2022-08-23T05:21:55.071Z,74.72
2022-08-23T05:24:30.001Z,74.70
2022-08-23T05:26:59.204Z,74.82
2022-08-23T05:29:30.286Z,74.67
2022-08-23T05:31:59.625Z,74.72
2022-08-23T05:34:29.172Z,74.71
2022-08-23T05:37:00.751Z,74.53
2022-08-23T05:39:36.882Z,74.60
2022-08-23T05:42:14.369Z,74.37
2022-08-23T05:44:51.236Z,74.01
2022-08-23T05:47:24.668Z,73.78
2022-08-23T05:50:13.564Z,73.66
2022-08-23T05:52:45.839Z,73.61
2022-08-23T05:55:17.637Z,73.23
2022-08-23T05:57:56.905Z,73.29
2022-08-23T06:00:38.108Z,73.37
2022-08-23T06:03:10.978Z,73.34
2022-08-23T06:05:42.249Z,73.27
2022-08-23T06:08:13.264Z,73.12
2022-08-23T06:10:42.808Z,73.15
2022-08-23T06:13:25.492Z,72.70
2022-08-23T06:15:57.500Z,72.66
2022-08-23T06:18:28.009Z,72.61
2022-08-23T06:21:08.354Z,72.39
2022-08-23T06:23:49.710Z,72.22
2022-08-23T06:26:22.842Z,72.17
2022-08-23T06:28:57.612Z,72.08
2022-08-23T06:31:49.037Z,71.98
2022-08-23T06:34:33.642Z,71.83
2022-08-23T06:37:12.905Z,71.71
2022-08-23T06:40:00.771Z,71.84
2022-08-23T06:42:50.412Z,71.44
2022-08-23T06:45:33.880Z,71.17
2022-08-23T06:48:11.085Z,70.95
2022-08-23T06:50:47.833Z,70.77
2022-08-23T06:53:41.779Z,70.67
2022-08-23T06:56:32.964Z,70.54
2022-08-23T06:59:12.553Z,70.39
2022-08-23T07:02:04.164Z,69.79
2022-08-23T07:04:54.251Z,69.63
2022-08-23T07:07:41.319Z,69.28
2022-08-23T07:10:16.812Z,69.28
2022-08-23T07:12:46.267Z,69.07
2022-08-23T07:15:15.944Z,68.55
2022-08-23T07:17:47.311Z,68.48
2022-08-23T07:20:18.264Z,68.25
2022-08-23T07:22:50.495Z,67.91
2022-08-23T07:25:22.116Z,67.93
2022-08-23T07:27:56.564Z,67.24
2022-08-23T07:30:26.071Z,67.34
2022-08-23T07:33:01.269Z,66.97
2022-08-23T07:35:38.178Z,66.90
2022-08-23T07:38:15.543Z,66.79
2022-08-23T07:40:53.929Z,66.41
2022-08-23T07:43:24.095Z,66.61
2022-08-23T07:45:54.452Z,66.52
2022-08-23T07:48:50.160Z,66.60
2022-08-23T07:51:22.111Z,66.88
2022-08-23T07:53:54.161Z,66.77
2022-08-23T07:56:25.185Z,66.91
2022-08-23T07:59:02.623Z,66.95
2022-08-23T08:01:54.821Z,67.20
2022-08-23T08:04:26.422Z,67.01
2022-08-23T08:07:17.743Z,67.19
2022-08-23T08:09:48.105Z,67.38
2022-08-23T08:12:19.029Z,67.12
2022-08-23T08:14:52.210Z,67.23
2022-08-23T08:17:27.494Z,66.88
2022-08-23T08:20:08.226Z,66.27
2022-08-23T08:22:58.488Z,65.91
2022-08-23T08:25:48.837Z,64.79
2022-08-23T08:28:20.888Z,65.02
2022-08-23T08:30:50.323Z,64.57
2022-08-23T08:33:19.506Z,64.47
2022-08-23T08:35:57.798Z,63.72
2022-08-23T08:38:31.836Z,63.08
2022-08-23T08:41:16.703Z,62.63
2022-08-23T08:44:04.581Z,62.05
2022-08-23T08:46:47.066Z,62.22
2022-08-23T08:49:26.544Z,62.35
2022-08-23T08:52:03.428Z,62.48
2022-08-23T08:54:34.477Z,61.93
2022-08-23T08:57:04.805Z,61.53
2022-08-23T08:59:53.282Z,61.46
2022-08-23T09:02:33.864Z,59.77
2022-08-23T09:05:13.016Z,58.76
2022-08-23T09:07:56.699Z,58.19
2022-08-23T09:10:59.071Z,55.55
2022-08-23T09:13:56.889Z,52.29
2022-08-23T09:16:40.821Z,53.65
2022-08-23T09:19:11.462Z,53.14
2022-08-23T09:21:47.692Z,51.64
2022-08-23T09:24:17.848Z,52.63
2022-08-23T09:26:59.220Z,51.68
2022-08-23T09:29:33.415Z,51.93
2022-08-23T09:32:06.665Z,51.22
2022-08-23T09:34:44.526Z,50.81
2022-08-23T09:37:22.290Z,50.98
2022-08-23T09:40:13.916Z,50.07
2022-08-23T09:42:45.107Z,50.39
2022-08-23T09:45:35.146Z,48.77
2022-08-23T09:48:08.304Z,49.46
2022-08-23T09:50:54.665Z,47.83
2022-08-23T09:53:28.302Z,48.41
2022-08-23T09:56:11.228Z,48.66
2022-08-23T09:58:47.019Z,47.95
2022-08-23T10:01:27.000Z,47.73
2022-08-23T10:04:14.602Z,46.78
2022-08-23T10:06:46.776Z,47.05
2022-08-23T10:09:25.875Z,46.26
2022-08-23T10:11:57.287Z,45.79
2022-08-23T10:14:33.836Z,45.30
2022-08-23T10:17:15.865Z,43.09
2022-08-23T10:19:54.785Z,42.19
2022-08-23T10:22:27.689Z,43.54
2022-08-23T10:25:27.561Z,41.61
2022-08-23T10:28:27.619Z,41.06
2022-08-23T10:31:04.905Z,41.74
2022-08-23T10:33:46.723Z,40.98
2022-08-23T10:36:24.145Z,41.87
2022-08-23T10:39:03.729Z,41.76
2022-08-23T10:41:52.327Z,40.37
2022-08-23T10:44:33.321Z,40.53
2022-08-23T10:47:19.805Z,39.46
2022-08-23T10:49:53.533Z,39.79
2022-08-23T10:52:34.475Z,39.51
2022-08-23T10:55:17.493Z,40.55
2022-08-23T10:57:49.839Z,41.21
2022-08-23T11:00:26.815Z,41.70
2022-08-23T11:03:10.199Z,42.28
2022-08-23T11:05:40.897Z,42.46
2022-08-23T11:08:36.764Z,44.09
2022-08-23T11:11:46.160Z,45.02
2022-08-23T11:14:34.619Z,46.27
2022-08-23T11:17:08.376Z,45.99
2022-08-23T11:19:56.066Z,45.98
2022-08-23T11:22:31.022Z,45.56
2022-08-23T11:25:04.131Z,45.35
2022-08-23T11:27:42.055Z,44.06
2022-08-23T11:30:50.114Z,42.12
2022-08-23T11:33:44.319Z,40.42
2022-08-23T11:36:23.343Z,40.45
2022-08-23T11:39:19.619Z,40.35
2022-08-23T11:42:07.136Z,39.53
2022-08-23T11:44:47.729Z,39.34
2022-08-23T11:47:28.774Z,38.63
2022-08-23T11:50:26.949Z,37.13
2022-08-23T11:53:32.429Z,36.78
2022-08-23T11:56:46.163Z,37.33
2022-08-23T11:59:41.791Z,38.55
2022-08-23T12:03:03.296Z,38.73
2022-08-23T12:06:09.474Z,38.69
2022-08-23T12:08:56.981Z,37.93
2022-08-23T12:11:27.308Z,37.85
2022-08-23T12:14:02.257Z,38.10
2022-08-23T12:16:37.888Z,38.01
2022-08-23T12:19:19.986Z,36.77
2022-08-23T12:21:53.380Z,36.03
2022-08-23T12:24:32.905Z,35.86
2022-08-23T12:27:15.328Z,35.75
2022-08-23T12:29:54.098Z,35.45
2022-08-23T12:32:34.112Z,35.37
2022-08-23T12:35:26.601Z,33.68
2022-08-23T12:38:05.671Z,33.53
2022-08-23T12:40:42.537Z,32.33
2022-08-23T12:43:22.787Z,32.07
2022-08-23T12:45:57.279Z,32.14
2022-08-23T12:48:30.406Z,32.41
2022-08-23T12:51:04.122Z,32.19
2022-08-23T12:53:41.381Z,32.57
2022-08-23T12:56:26.778Z,32.41
2022-08-23T12:59:06.907Z,32.42
2022-08-23T13:01:40.161Z,32.80
2022-08-23T13:04:13.678Z,32.46
2022-08-23T13:06:49.536Z,32.35
2022-08-23T13:09:24.517Z,32.33
2022-08-23T13:11:56.080Z,32.79
2022-08-23T13:14:34.562Z,32.55
2022-08-23T13:17:21.489Z,32.65
2022-08-23T13:19:56.288Z,32.10
2022-08-23T13:22:27.248Z,31.26
2022-08-23T13:28:02.581Z,30.84
2022-08-23T13:30:36.239Z,31.04
2022-08-23T13:33:25.119Z,31.47
2022-08-23T13:36:13.073Z,31.06
2022-08-23T13:38:44.444Z,30.71
2022-08-23T13:41:30.803Z,30.73
2022-08-23T13:44:08.111Z,31.57
2022-08-23T13:46:46.869Z,31.68
2022-08-23T13:49:21.435Z,32.12
2022-08-23T13:54:59.385Z,31.62
2022-08-23T13:57:30.286Z,31.31
2022-08-23T14:00:02.406Z,31.64
2022-08-23T14:02:39.744Z,32.05
2022-08-23T14:05:10.445Z,32.31
2022-08-23T14:07:39.996Z,31.95
2022-08-23T14:10:10.434Z,31.34
2022-08-23T14:12:40.129Z,31.25
2022-08-23T14:15:15.278Z,31.46
2022-08-23T14:17:48.360Z,31.31
2022-08-23T14:23:12.324Z,32.52
2022-08-23T14:25:42.125Z,33.13
2022-08-23T14:28:11.580Z,33.54
2022-08-23T14:30:42.194Z,33.93
2022-08-23T14:33:11.497Z,34.13
2022-08-23T14:35:40.729Z,34.26
2022-08-23T14:38:10.989Z,35.22
2022-08-23T14:40:40.308Z,35.54
2022-08-23T14:43:11.957Z,35.35
2022-08-23T14:45:43.008Z,34.78
2022-08-23T14:48:12.508Z,35.07
2022-08-23T14:50:42.414Z,35.63
2022-08-23T14:53:13.428Z,36.09
2022-08-23T14:55:42.999Z,36.62
2022-08-23T14:58:12.213Z,36.14
2022-08-23T15:00:45.057Z,36.10
2022-08-23T15:03:20.288Z,35.95
2022-08-23T15:05:49.712Z,36.09
2022-08-23T15:08:19.112Z,36.34
2022-08-23T15:10:50.439Z,35.78
2022-08-23T15:13:28.425Z,35.40
2022-08-23T15:16:02.115Z,35.07
2022-08-23T15:18:34.300Z,35.19
2022-08-23T15:21:03.906Z,35.58
2022-08-23T15:23:33.522Z,35.59
2022-08-23T15:26:02.767Z,35.57
2022-08-23T15:28:32.531Z,35.73
2022-08-23T15:31:03.256Z,35.88
2022-08-23T15:33:33.755Z,36.18
2022-08-23T15:36:03.565Z,36.00
2022-08-23T15:38:33.170Z,35.95
2022-08-23T15:41:02.519Z,36.35
2022-08-23T15:43:34.204Z,36.17
2022-08-23T15:46:09.515Z,35.55
2022-08-23T15:48:45.625Z,35.14
2022-08-23T15:51:15.515Z,34.34
2022-08-23T15:53:45.354Z,34.09
2022-08-23T15:56:19.796Z,33.62
2022-08-23T15:58:50.386Z,33.94
2022-08-23T16:01:24.622Z,34.37
2022-08-23T16:03:54.166Z,34.69
2022-08-23T16:06:23.597Z,34.84
2022-08-23T16:08:54.462Z,34.88
2022-08-23T16:11:24.307Z,35.40
2022-08-23T16:13:55.835Z,34.51
2022-08-23T16:16:31.073Z,34.68
2022-08-23T16:19:02.090Z,34.15
2022-08-23T16:21:35.922Z,34.22
2022-08-23T16:24:07.175Z,33.17
2022-08-23T16:26:45.417Z,34.10
2022-08-23T16:29:18.275Z,33.65
2022-08-23T16:31:49.613Z,33.05
2022-08-23T16:34:21.415Z,33.51
2022-08-23T16:36:56.517Z,33.48
2022-08-23T16:39:27.938Z,33.77
2022-08-23T16:41:57.296Z,34.37
2022-08-23T16:44:26.469Z,34.11
2022-08-23T16:46:58.094Z,34.59
2022-08-23T16:49:27.281Z,35.13
2022-08-23T16:51:56.876Z,35.57
2022-08-23T16:54:26.496Z,35.40
2022-08-23T16:56:56.795Z,35.25
2022-08-23T16:59:26.237Z,35.20
2022-08-23T17:02:01.369Z,34.92
2022-08-23T17:04:40.021Z,35.27
2022-08-23T17:07:09.250Z,35.03
2022-08-23T17:09:38.499Z,34.63
2022-08-23T17:12:08.107Z,35.11
2022-08-23T17:14:37.450Z,34.58
2022-08-23T17:17:08.078Z,35.42
2022-08-23T17:19:37.475Z,35.49
2022-08-23T17:22:06.986Z,35.30
2022-08-23T17:24:37.559Z,35.29
2022-08-23T17:27:08.050Z,35.43
2022-08-23T17:29:37.772Z,34.95
2022-08-23T17:32:09.346Z,34.60
2022-08-23T17:34:39.349Z,34.56
2022-08-23T17:37:18.001Z,35.14
2022-08-23T17:39:48.168Z,35.22
2022-08-23T17:42:18.185Z,35.25
2022-08-23T17:44:47.491Z,35.33
2022-08-23T17:47:19.839Z,35.39
2022-08-23T17:49:50.427Z,35.22
2022-08-23T17:52:19.923Z,35.24
2022-08-23T17:54:49.238Z,35.15
2022-08-23T17:57:18.751Z,35.09
2022-08-23T17:59:48.384Z,35.23
2022-08-23T18:02:20.797Z,35.57
2022-08-23T18:04:50.150Z,35.27
2022-08-23T18:07:21.899Z,35.14
2022-08-23T18:09:51.385Z,35.31
2022-08-23T18:12:20.693Z,35.41
2022-08-23T18:14:49.929Z,35.86
2022-08-23T18:17:20.605Z,36.22
2022-08-23T18:19:49.943Z,36.01
2022-08-23T18:22:20.244Z,36.46
2022-08-23T18:24:49.472Z,36.90
2022-08-23T18:27:47.840Z,37.24
2022-08-23T18:30:17.532Z,37.80
2022-08-23T18:32:48.882Z,37.47
2022-08-23T18:35:18.565Z,37.91
2022-08-23T18:37:48.023Z,37.76
2022-08-23T18:40:17.358Z,38.29
2022-08-23T18:42:46.672Z,38.36
2022-08-23T18:45:16.039Z,38.36
2022-08-23T18:47:45.869Z,38.68
2022-08-23T18:50:17.422Z,38.87
2022-08-23T18:52:46.775Z,39.02
2022-08-23T18:55:17.682Z,39.39
2022-08-23T18:57:47.690Z,39.36
2022-08-23T19:00:17.262Z,39.66
2022-08-23T19:02:49.240Z,39.60
2022-08-23T19:05:20.051Z,39.11
2022-08-23T19:07:49.938Z,39.26
2022-08-23T19:10:21.196Z,39.56
2022-08-23T19:13:02.472Z,39.58
2022-08-23T19:15:34.126Z,39.83
2022-08-23T19:18:05.593Z,39.92
2022-08-23T19:20:37.402Z,40.20
2022-08-23T19:23:07.649Z,40.74
2022-08-23T19:25:41.197Z,40.60
2022-08-23T19:28:14.836Z,40.68
2022-08-23T19:30:44.619Z,41.24
2022-08-23T19:33:14.203Z,41.61
2022-08-23T19:35:45.575Z,41.70
2022-08-23T19:38:17.259Z,41.40
2022-08-23T19:40:54.634Z,42.08
2022-08-23T19:43:24.434Z,42.17
2022-08-23T19:45:54.893Z,42.13
2022-08-23T19:48:24.564Z,42.46
2022-08-23T19:50:58.132Z,42.31
2022-08-23T19:53:28.035Z,42.81
2022-08-23T19:55:57.425Z,43.27
2022-08-23T19:58:26.667Z,42.86
2022-08-23T20:00:56.186Z,43.57
2022-08-23T20:03:26.560Z,43.64
2022-08-23T20:05:58.980Z,44.22
2022-08-23T20:08:28.816Z,43.68
2022-08-23T20:10:59.674Z,44.31
2022-08-23T20:13:29.510Z,44.35
2022-08-23T20:15:58.871Z,44.19
2022-08-23T20:18:28.279Z,44.51
2022-08-23T20:21:00.833Z,45.29
2022-08-23T20:23:46.950Z,45.48
2022-08-23T20:26:16.527Z,44.85
2022-08-23T20:28:59.113Z,44.82
2022-08-23T20:31:36.832Z,44.75
2022-08-23T20:34:09.366Z,44.83
2022-08-23T20:36:40.564Z,45.93
2022-08-23T20:39:10.112Z,45.88
2022-08-23T20:41:45.130Z,45.66
2022-08-23T20:44:16.432Z,45.86
2022-08-23T20:46:45.754Z,46.01
2022-08-23T20:49:15.842Z,46.08
2022-08-23T20:51:47.079Z,46.47
2022-08-23T20:54:18.933Z,47.20
2022-08-23T20:56:51.546Z,47.45
2022-08-23T20:59:22.181Z,47.64
2022-08-23T21:01:52.252Z,48.07
2022-08-23T21:04:22.665Z,48.78
2022-08-23T21:07:01.473Z,48.87
2022-08-23T21:09:31.055Z,50.04
2022-08-23T21:12:00.361Z,49.29
2022-08-23T21:14:30.060Z,50.39
2022-08-23T21:16:59.452Z,49.99
2022-08-23T21:19:30.099Z,51.13
2022-08-23T21:22:01.189Z,52.02
2022-08-23T21:24:32.270Z,52.84
2022-08-23T21:27:01.668Z,53.54
2022-08-23T21:29:39.078Z,53.78
2022-08-23T21:32:08.702Z,53.63
2022-08-23T21:34:40.657Z,54.60
2022-08-23T21:37:11.496Z,54.04
2022-08-23T21:39:40.852Z,54.25
2022-08-23T21:42:15.052Z,55.11
2022-08-23T21:44:47.927Z,54.95
2022-08-23T21:47:17.026Z,55.79
2022-08-23T21:49:47.251Z,55.82
2022-08-23T21:52:18.080Z,55.25
2022-08-23T21:54:47.910Z,56.24
2022-08-23T21:57:20.040Z,55.64
2022-08-23T21:59:49.580Z,56.23
2022-08-23T22:02:19.400Z,56.11
2022-08-23T22:04:49.408Z,56.69
2022-08-23T22:07:20.141Z,56.64
2022-08-23T22:09:51.542Z,57.02
2022-08-23T22:12:24.928Z,56.73
2022-08-23T22:14:54.633Z,56.10
2022-08-23T22:17:23.877Z,56.91
2022-08-23T22:19:55.177Z,56.06
2022-08-23T22:22:26.458Z,56.05
2022-08-23T22:24:56.032Z,56.71
2022-08-23T22:27:25.303Z,56.85
2022-08-23T22:29:54.535Z,56.21
2022-08-23T22:32:24.598Z,56.55
2022-08-23T22:34:53.862Z,56.04
2022-08-23T22:37:23.799Z,56.11
2022-08-23T22:39:57.358Z,56.53
2022-08-23T22:42:26.661Z,56.58
2022-08-23T22:44:58.477Z,56.76
2022-08-23T22:47:28.003Z,55.97
2022-08-23T22:49:57.955Z,56.80
2022-08-23T22:52:27.070Z,57.01
2022-08-23T22:54:58.159Z,56.42
2022-08-23T22:57:27.373Z,56.36
2022-08-23T22:59:56.660Z,56.84
2022-08-23T23:02:28.093Z,56.50
2022-08-23T23:04:57.443Z,57.48
2022-08-23T23:07:40.542Z,57.93
2022-08-23T23:10:11.720Z,58.49
2022-08-23T23:12:41.523Z,59.46
2022-08-23T23:15:12.102Z,60.07
2022-08-23T23:17:41.468Z,61.20
2022-08-23T23:20:29.383Z,61.60
2022-08-23T23:22:58.673Z,62.92
2022-08-23T23:25:29.294Z,63.00
2022-08-23T23:28:02.298Z,63.73
2022-08-23T23:30:32.715Z,66.92
2022-08-23T23:33:02.314Z,65.89
2022-08-23T23:35:31.604Z,66.37
2022-08-23T23:38:01.116Z,66.95
2022-08-23T23:40:32.736Z,70.41
2022-08-23T23:43:02.141Z,68.44
2022-08-23T23:45:31.968Z,70.32
2022-08-23T23:48:01.394Z,71.46
2022-08-23T23:50:32.524Z,73.10
2022-08-23T23:53:01.664Z,73.67
2022-08-23T23:55:32.455Z,74.92
2022-08-23T23:58:02.281Z,75.10
